• Join FlightAware (Why Join?)
  • Login
  • US Flag 
04:01PM EST


 

Airport Tracker/Info


-or-


 

Live Flight TrackerFlight Track Log ✈ AAL963 ✈ 25-May-2013 ✈ KDFW - SBGR / GRU

Flight Track Log - Related Links

Times and Time Zones

All times are in EDT time to prevent confusion due to time zone crossing. See the AAL963 flight status page for this flight to view local times or setup timezone preferences in your user account.

Time Position Orientation Groundspeed Altitude Reporting Facility
EDT Latitude Longitude Course Direction KTS MPH feet Rate Location/Type
09:39PM 32.8660 -97.0530 188° South 167 192 1,900  Level FlightAware
09:39PM 32.8450 -97.0570 189° South 193 222 2,300 960 Climbing FlightAware
09:39PM 32.8160 -97.0640 191° South 223 257 2,800 1,380 Climbing FlightAware
09:40PM 32.7850 -97.0700 189° South 235 270 3,700 2,040 Climbing FlightAware
09:40PM 32.7630 -97.0730 187° South 238 274 4,500 1,800 Climbing FlightAware
09:41PM 32.7260 -97.0610 165° South 258 297 5,400 1,860 Climbing FlightAware
09:41PM 32.6950 -97.0430 154° Southeast 260 299 6,500 2,100 Climbing FlightAware
09:42PM 32.6630 -97.0250 155° Southeast 266 306 7,400 2,100 Climbing FlightAware
09:42PM 32.6300 -97.0080 157° South 270 311 8,500 2,040 Climbing FlightAware
09:43PM 32.6170 -97.0010 156° South 275 316 8,800 1,800 Climbing FlightAware
09:43PM 32.5840 -96.9800 152° Southeast 283 326 9,700 1,260 Climbing FlightAware
09:44PM 32.5300 -96.9520 156° South 322 371 10,300 900 Climbing FlightAware
09:44PM 32.4700 -96.9190 155° Southeast 353 406 11,000 1,020 Climbing FlightAware
09:45PM 32.4050 -96.8830 155° Southeast 380 437 11,800 1,320 Climbing FlightAware
09:46PM 32.3380 -96.8450 154° Southeast 395 455 12,900 1,800 Climbing FlightAware
09:46PM 32.2690 -96.8100 157° South 399 459 14,300 1,920 Climbing FlightAware
09:47PM 32.1950 -96.7810 162° South 406 467 15,600 1,680 Climbing FlightAware
09:48PM 32.1192 -96.7524 162° South 414 476 16,700 1,080 Climbing FlightAware ADS-B
09:48PM 32.0638 -96.7314 162° South 414 476 16,900 120 Climbing FlightAware ADS-B
09:49PM 31.9954 -96.7055 162° South 418 481 16,900 600 Level FlightAware ADS-B
09:50PM 31.9347 -96.6825 162° South 422 486 17,600 1,380 Climbing FlightAware ADS-B
09:50PM 31.8781 -96.6610 162° South 427 491 18,400 1,560 Climbing FlightAware ADS-B
09:51PM 31.8214 -96.6380 161° South 432 497 19,200 1,680 Climbing FlightAware ADS-B
09:51PM 31.7634 -96.6138 160° South 435 501 20,100 1,620 Climbing FlightAware ADS-B
09:52PM 31.7054 -96.5898 161° South 440 506 20,900 1,620 Climbing FlightAware ADS-B
09:52PM 31.6466 -96.5658 161° South 441 507 21,800 2,280 Climbing FlightAware ADS-B
09:53PM 31.5343 -96.5202 161° South 415 478 24,400 2,100 Climbing FlightAware ADS-B
09:54PM 31.4759 -96.4974 162° South 420 483 25,100 1,320 Climbing FlightAware ADS-B
09:54PM 31.4189 -96.4765 163° South 419 482 25,800 1,440 Climbing FlightAware ADS-B
09:55PM 31.3625 -96.4557 163° South 419 482 26,600 1,200 Climbing FlightAware ADS-B
09:55PM 31.3045 -96.4341 162° South 424 488 27,100 960 Climbing FlightAware ADS-B
09:56PM 31.2091 -96.3983 162° South 432 497 27,900 840 Climbing FlightAware ADS-B
09:56PM 31.1850 -96.3857 153° Southeast 439 505 28,000 660 Climbing FlightAware ADS-B
09:56PM 31.1770 -96.3801 149° Southeast 440 506 28,100 840 Climbing FlightAware ADS-B
09:56PM 31.1625 -96.3677 144° Southeast 443 510 28,200 660 Climbing FlightAware ADS-B
09:57PM 31.1480 -96.3519 137° Southeast 448 516 28,300 480 Climbing FlightAware ADS-B
09:58PM 31.0717 -96.2306 125° Southeast 469 540 28,800 480 Climbing FlightAware ADS-B
09:58PM 31.0338 -96.1682 125° Southeast 477 549 29,100 600 Climbing FlightAware ADS-B
09:59PM 30.9944 -96.1040 126° Southeast 485 558 29,400 420 Climbing FlightAware ADS-B
10:00PM 30.9111 -95.9693 126° Southeast 502 578 29,800 360 Climbing FlightAware ADS-B
10:00PM 30.8693 -95.9019 126° Southeast 511 588 30,000 660 Climbing FlightAware ADS-B
10:01PM 30.8271 -95.8340 126° Southeast 512 589 30,500 960 Climbing FlightAware ADS-B
10:02PM 30.7434 -95.6994 126° Southeast 513 590 31,500 960 Climbing FlightAware ADS-B
10:03PM 30.6495 -95.5490 126° Southeast 513 590 32,600 540 Climbing FlightAware ADS-B
10:04PM 30.5165 -95.3370 126° Southeast 510 587 33,000 120 Climbing FlightAware ADS-B
10:05PM 30.4319 -95.2025 126° Southeast 510 587 33,000  Level FlightAware ADS-B
10:06PM 30.3891 -95.1346 126° Southeast 511 588 33,000  Level FlightAware ADS-B
10:06PM 30.3428 -95.0614 126° Southeast 510 587 33,000  Level FlightAware ADS-B
10:08PM 30.2132 -94.8572 126° Southeast 509 586 33,000  Level FlightAware ADS-B
10:10PM 30.0458 -94.5949 127° Southeast 506 582 33,000  Level FlightAware ADS-B
10:11PM 29.9614 -94.4632 126° Southeast 506 582 33,000  Level FlightAware ADS-B
10:12PM 29.9188 -94.3970 127° Southeast 505 581 33,000  Level FlightAware ADS-B
10:12PM 29.8758 -94.3304 127° Southeast 504 580 33,000  Level FlightAware ADS-B
10:14PM 29.7504 -94.1361 127° Southeast 502 578 33,000  Level FlightAware ADS-B
10:15PM 29.6488 -94.0058 139° Southeast 501 577 33,000  Level FlightAware ADS-B
10:16PM 29.4514 -93.8382 145° Southeast 497 572 33,000  Level FlightAware ADS-B
10:17PM 29.4312 -93.8253 151° Southeast 493 567 33,000  Level FlightAware ADS-B
10:17PM 29.4094 -93.8147 157° South 490 564 33,000  Level FlightAware ADS-B
10:17PM 29.3438 -93.7924 163° South 485 558 33,000  Level FlightAware ADS-B
10:18PM 29.3044 -93.7799 165° South 486 559 33,000  Level FlightAware ADS-B
10:18PM 29.2795 -93.7700 161° South 487 560 33,000  Level FlightAware ADS-B
10:18PM 29.2545 -93.7578 157° South 491 565 33,000  Level FlightAware ADS-B
10:18PM 29.2281 -93.7419 152° Southeast 495 570 33,000  Level FlightAware ADS-B
10:19PM 29.1872 -93.7104 146° Southeast 500 575 33,000  Level FlightAware ADS-B
10:19PM 29.1320 -93.6592 141° Southeast 501 577 33,000  Level FlightAware ADS-B
10:20PM 29.0770 -93.6078 141° Southeast 500 575 33,000  Level FlightAware ADS-B
10:20PM 29.0214 -93.5560 141° Southeast 500 575 33,000  Level FlightAware ADS-B
10:21PM 28.9659 -93.5046 141° Southeast 500 575 33,000  Level FlightAware ADS-B
10:21PM 28.9116 -93.4546 141° Southeast 500 575 33,000  Level FlightAware ADS-B
10:22PM 28.8847 -93.4278 141° Southeast 505 581 33,000 -120 Level Houston Center
10:23PM 28.7767 -93.3311 142° Southeast 497 572 32,900 -60 Descending Houston Center
10:24PM 28.6667 -93.2353 143° Southeast 500 575 32,900  Level Houston Center
10:25PM 28.5353 -93.1206 142° Southeast 497 572 33,000  Climbing Houston Center
10:26PM 28.4250 -93.0228 142° Southeast 502 578 32,900 -60 Descending Houston Center
10:27PM 28.3153 -92.9269 142° Southeast 500 575 32,900  Level Houston Center
10:28PM 28.2036 -92.8319 143° Southeast 501 577 32,900  Level Houston Center
10:29PM 28.0931 -92.7358 143° Southeast 502 578 32,900  Level Houston Center
10:30PM 27.9825 -92.6378 142° Southeast 504 580 32,900  Level Houston Center
10:31PM 27.8697 -92.5422 143° Southeast 506 582 32,900 240 Level Houston Center
10:32PM 27.7578 -92.4464 143° Southeast 506 582 33,500 840 Climbing Houston Center
10:33PM 27.6483 -92.3503 142° Southeast 501 577 34,600 720 Climbing Houston Center
10:34PM 27.5386 -92.2575 143° Southeast 495 570 35,000 180 Climbing Houston Center
10:35PM 27.4283 -92.1650 143° Southeast 494 568 35,000  Level Houston Center
10:36PM 27.3192 -92.0725 143° Southeast 493 567 35,000  Level Houston Center
10:37PM 27.2089 -91.9775 143° Southeast 497 572 35,000 -60 Level Houston Center
10:38PM 27.0972 -91.8858 144° Southeast 498 573 34,900 -60 Descending Houston Center
10:39PM 26.9856 -91.7983 145° Southeast 494 568 34,900  Level Houston Center
10:41PM 26.8002 -91.6376 145° Southeast  Level FlightAware Approximate
10:48PM 26.0347 -91.0351 145° Southeast  Level FlightAware Approximate
10:49PM 25.9253 -90.9494 145° Southeast  Level FlightAware Approximate
10:50PM 25.8159 -90.8639 145° Southeast  Level FlightAware Approximate
10:51PM 25.7064 -90.7785 145° Southeast  Level FlightAware Approximate
10:52PM 25.5969 -90.6932 145° Southeast  Level FlightAware Approximate
10:53PM 25.4873 -90.6081 145° Southeast  Level FlightAware Approximate
10:54PM 25.3777 -90.5232 145° Southeast  Level FlightAware Approximate
10:55PM 25.2680 -90.4384 145° Southeast  Level FlightAware Approximate
10:56PM 25.1583 -90.3538 145° Southeast  Level FlightAware Approximate
10:57PM 25.0485 -90.2693 145° Southeast  Level FlightAware Approximate
10:58PM 24.9387 -90.1850 145° Southeast  Level FlightAware Approximate
10:59PM 24.8288 -90.1008 145° Southeast  Level FlightAware Approximate
11:00PM 24.7189 -90.0168 145° Southeast  Level FlightAware Approximate
11:01PM 24.6090 -89.9329 145° Southeast  Level FlightAware Approximate
11:02PM 24.4991 -89.8491 138° Southeast  Level FlightAware Approximate
11:03PM 24.4013 -89.7488 137° Southeast  Level FlightAware Approximate
11:04PM 24.3036 -89.6484 137° Southeast  Level FlightAware Approximate
11:05PM 24.2059 -89.5481 137° Southeast  Level FlightAware Approximate
11:06PM 24.1082 -89.4481 137° Southeast  Level FlightAware Approximate
11:07PM 24.0103 -89.3481 137° Southeast  Level FlightAware Approximate
11:08PM 23.9124 -89.2483 137° Southeast  Level FlightAware Approximate
11:09PM 23.8144 -89.1487 137° Southeast  Level FlightAware Approximate
11:10PM 23.7164 -89.0492 137° Southeast  Level FlightAware Approximate
11:11PM 23.6183 -88.9499 137° Southeast  Level FlightAware Approximate
11:12PM 23.5201 -88.8507 137° Southeast  Level FlightAware Approximate
11:13PM 23.4219 -88.7516 137° Southeast  Level FlightAware Approximate
11:14PM 23.3236 -88.6527 137° Southeast  Level FlightAware Approximate
11:15PM 23.2253 -88.5540 137° Southeast  Level FlightAware Approximate
11:16PM 23.1269 -88.4554 137° Southeast  Level FlightAware Approximate
11:17PM 23.0284 -88.3569 137° Southeast  Level FlightAware Approximate
11:18PM 22.9299 -88.2586 137° Southeast  Level FlightAware Approximate
11:19PM 22.8313 -88.1605 137° Southeast  Level FlightAware Approximate
11:20PM 22.7326 -88.0624 137° Southeast  Level FlightAware Approximate
11:21PM 22.6339 -87.9645 138° Southeast  Level FlightAware Approximate
11:22PM 22.5352 -87.8668 138° Southeast  Level FlightAware Approximate
11:23PM 22.4363 -87.7692 138° Southeast  Level FlightAware Approximate
11:24PM 22.3374 -87.6717 138° Southeast  Level FlightAware Approximate
11:25PM 22.2385 -87.5744 138° Southeast  Level FlightAware Approximate
11:26PM 22.1395 -87.4772 138° Southeast  Level FlightAware Approximate
11:27PM 22.0404 -87.3802 138° Southeast  Level FlightAware Approximate
11:28PM 21.9413 -87.2832 138° Southeast  Level FlightAware Approximate
11:29PM 21.8421 -87.1865 138° Southeast  Level FlightAware Approximate
11:30PM 21.7429 -87.0898 138° Southeast  Level FlightAware Approximate
11:31PM 21.6436 -86.9933 138° Southeast  Level FlightAware Approximate
11:32PM 21.5456 -86.8953 137° Southeast  Level FlightAware Approximate
11:33PM 21.4478 -86.7973 137° Southeast  Level FlightAware Approximate
11:34PM 21.3498 -86.6994 137° Southeast  Level FlightAware Approximate
11:35PM 21.2519 -86.6016 137° Southeast  Level FlightAware Approximate
11:36PM 21.1534 -86.5045 138° Southeast  Level FlightAware Approximate
11:37PM 21.0537 -86.4087 138° Southeast  Level FlightAware Approximate
11:38PM 20.9541 -86.3131 138° Southeast  Level FlightAware Approximate
11:39PM 20.8544 -86.2176 138° Southeast  Level FlightAware Approximate
11:40PM 20.7546 -86.1223 138° Southeast  Level FlightAware Approximate
11:41PM 20.6548 -86.0270 138° Southeast  Level FlightAware Approximate
11:42PM 20.5549 -85.9319 138° Southeast  Level FlightAware Approximate
11:43PM 20.4550 -85.8370 138° Southeast  Level FlightAware Approximate
11:44PM 20.3550 -85.7421 138° Southeast  Level FlightAware Approximate
11:45PM 20.2549 -85.6474 138° Southeast  Level FlightAware Approximate
11:46PM 20.1549 -85.5527 138° Southeast  Level FlightAware Approximate
11:47PM 20.0544 -85.4586 139° Southeast  Level FlightAware Approximate
11:48PM 19.9538 -85.3649 139° Southeast  Level FlightAware Approximate
11:49PM 19.8530 -85.2712 139° Southeast  Level FlightAware Approximate
11:50PM 19.7522 -85.1777 139° Southeast  Level FlightAware Approximate
11:51PM 19.6514 -85.0843 139° Southeast  Level FlightAware Approximate
11:52PM 19.5505 -84.9910 139° Southeast  Level FlightAware Approximate
11:53PM 19.4496 -84.8978 139° Southeast  Level FlightAware Approximate
11:54PM 19.3486 -84.8047 139° Southeast  Level FlightAware Approximate
11:55PM 19.2476 -84.7118 139° Southeast  Level FlightAware Approximate
11:56PM 19.1465 -84.6190 139° Southeast  Level FlightAware Approximate
11:57PM 19.0454 -84.5263 139° Southeast  Level FlightAware Approximate
11:58PM 18.9443 -84.4336 139° Southeast  Level FlightAware Approximate
11:59PM 18.8430 -84.3412 139° Southeast  Level FlightAware Approximate
12:00AM 18.7418 -84.2488 139° Southeast  Level FlightAware Approximate
12:01AM 18.6405 -84.1565 139° Southeast  Level FlightAware Approximate
12:02AM 18.5400 -84.0633 139° Southeast  Level FlightAware Approximate
12:03AM 18.4396 -83.9701 139° Southeast  Level FlightAware Approximate
12:04AM 18.3391 -83.8770 139° Southeast  Level FlightAware Approximate
12:05AM 18.2386 -83.7840 139° Southeast  Level FlightAware Approximate
12:06AM 18.1380 -83.6911 139° Southeast  Level FlightAware Approximate
12:07AM 18.0374 -83.5984 139° Southeast  Level FlightAware Approximate
12:08AM 17.9367 -83.5057 139° Southeast  Level FlightAware Approximate
12:09AM 17.8360 -83.4131 139° Southeast  Level FlightAware Approximate
12:10AM 17.7353 -83.3207 139° Southeast  Level FlightAware Approximate
12:11AM 17.6345 -83.2283 139° Southeast  Level FlightAware Approximate
12:12AM 17.5337 -83.1361 139° Southeast  Level FlightAware Approximate
12:13AM 17.4328 -83.0439 139° Southeast  Level FlightAware Approximate
12:14AM 17.3319 -82.9519 139° Southeast  Level FlightAware Approximate
12:15AM 17.2309 -82.8599 139° Southeast  Level FlightAware Approximate
12:16AM 17.1299 -82.7681 139° Southeast  Level FlightAware Approximate
12:17AM 17.0289 -82.6764 139° Southeast  Level FlightAware Approximate
12:18AM 16.9278 -82.5847 139° Southeast  Level FlightAware Approximate
12:19AM 16.8267 -82.4931 139° Southeast  Level FlightAware Approximate
12:20AM 16.7255 -82.4017 139° Southeast  Level FlightAware Approximate
12:21AM 16.6243 -82.3103 139° Southeast  Level FlightAware Approximate
12:22AM 16.5231 -82.2191 139° Southeast  Level FlightAware Approximate
12:23AM 16.4213 -82.1285 140° Southeast  Level FlightAware Approximate
12:24AM 16.3193 -82.0383 140° Southeast  Level FlightAware Approximate
12:25AM 16.2172 -81.9482 140° Southeast  Level FlightAware Approximate
12:26AM 16.1151 -81.8582 140° Southeast  Level FlightAware Approximate
12:27AM 16.0129 -81.7683 140° Southeast  Level FlightAware Approximate
12:28AM 15.9108 -81.6785 140° Southeast  Level FlightAware Approximate
12:29AM 15.8085 -81.5887 140° Southeast  Level FlightAware Approximate
12:30AM 15.7063 -81.4991 140° Southeast  Level FlightAware Approximate
12:31AM 15.6039 -81.4095 140° Southeast  Level FlightAware Approximate
12:32AM 15.5016 -81.3201 140° Southeast  Level FlightAware Approximate
12:33AM 15.3992 -81.2307 140° Southeast  Level FlightAware Approximate
12:34AM 15.2976 -81.1421 140° Southeast  Level FlightAware Approximate
12:35AM 15.1960 -81.0537 140° Southeast  Level FlightAware Approximate
12:36AM 15.0944 -80.9653 140° Southeast  Level FlightAware Approximate
12:37AM 14.9927 -80.8769 140° Southeast  Level FlightAware Approximate
12:38AM 14.8917 -80.7879 140° Southeast  Level FlightAware Approximate
12:39AM 14.7906 -80.6989 140° Southeast  Level FlightAware Approximate
12:40AM 14.6894 -80.6101 140° Southeast  Level FlightAware Approximate
12:41AM 14.5883 -80.5213 140° Southeast  Level FlightAware Approximate
12:42AM 14.4871 -80.4326 140° Southeast  Level FlightAware Approximate
12:43AM 14.3858 -80.3439 140° Southeast  Level FlightAware Approximate
12:44AM 14.2846 -80.2554 140° Southeast  Level FlightAware Approximate
12:45AM 14.1833 -80.1669 140° Southeast  Level FlightAware Approximate
12:46AM 14.0820 -80.0786 140° Southeast  Level FlightAware Approximate
12:47AM 13.9806 -79.9902 140° Southeast  Level FlightAware Approximate
12:48AM 13.8792 -79.9020 140° Southeast  Level FlightAware Approximate
12:49AM 13.7778 -79.8139 140° Southeast  Level FlightAware Approximate
12:50AM 13.6763 -79.7258 140° Southeast  Level FlightAware Approximate
12:51AM 13.5748 -79.6378 140° Southeast  Level FlightAware Approximate
12:52AM 13.4733 -79.5499 140° Southeast  Level FlightAware Approximate
12:53AM 13.3720 -79.4622 140° Southeast  Level FlightAware Approximate
12:54AM 13.2705 -79.3745 140° Southeast  Level FlightAware Approximate
12:55AM 13.1691 -79.2870 140° Southeast  Level FlightAware Approximate
12:56AM 13.0677 -79.1995 140° Southeast  Level FlightAware Approximate
12:57AM 12.9662 -79.1121 140° Southeast  Level FlightAware Approximate
12:58AM 12.8647 -79.0248 140° Southeast  Level FlightAware Approximate
12:59AM 12.7631 -78.9375 140° Southeast  Level FlightAware Approximate
01:00AM 12.6611 -78.8509 141° Southeast  Level FlightAware Approximate
01:01AM 12.5583 -78.7653 141° Southeast  Level FlightAware Approximate
01:02AM 12.4555 -78.6797 141° Southeast  Level FlightAware Approximate
01:03AM 12.3526 -78.5942 141° Southeast  Level FlightAware Approximate
01:04AM 12.2498 -78.5087 141° Southeast  Level FlightAware Approximate
01:05AM 12.1469 -78.4234 141° Southeast  Level FlightAware Approximate
01:06AM 12.0439 -78.3381 141° Southeast  Level FlightAware Approximate
01:07AM 11.9410 -78.2528 141° Southeast  Level FlightAware Approximate
01:08AM 11.8380 -78.1676 141° Southeast  Level FlightAware Approximate
01:09AM 11.7359 -78.0814 140° Southeast  Level FlightAware Approximate
01:10AM 11.6340 -77.9949 140° Southeast  Level FlightAware Approximate
01:11AM 11.5321 -77.9085 140° Southeast  Level FlightAware Approximate
01:12AM 11.4302 -77.8222 140° Southeast  Level FlightAware Approximate
01:13AM 11.3282 -77.7359 140° Southeast  Level FlightAware Approximate
01:14AM 11.2262 -77.6497 140° Southeast  Level FlightAware Approximate
01:15AM 11.1242 -77.5636 140° Southeast  Level FlightAware Approximate
01:16AM 11.0221 -77.4775 140° Southeast  Level FlightAware Approximate
01:17AM 10.9214 -77.3898 137° Southeast  Level FlightAware Approximate
01:18AM 10.8240 -77.2984 137° Southeast  Level FlightAware Approximate
01:19AM 10.7266 -77.2070 137° Southeast  Level FlightAware Approximate
01:20AM 10.6292 -77.1156 137° Southeast  Level FlightAware Approximate
01:21AM 10.5317 -77.0243 137° Southeast  Level FlightAware Approximate
01:22AM 10.4342 -76.9331 137° Southeast  Level FlightAware Approximate
01:23AM 10.3368 -76.8418 137° Southeast  Level FlightAware Approximate
01:24AM 10.2394 -76.7506 137° Southeast  Level FlightAware Approximate
01:25AM 10.1419 -76.6594 137° Southeast  Level FlightAware Approximate
01:25AM 9.0830 -75.6790 137° Southeast 494 568 35,000  Level FlightAware
01:26AM 10.0445 -76.5683 137° Southeast  Level FlightAware Approximate
01:26AM 8.9700 -75.5750 138° Southeast 495 570 35,000  Level FlightAware
01:26AM 8.8840 -75.4970 138° Southeast 495 570 35,000  Level FlightAware
01:27AM 8.8290 -75.4460 137° Southeast 495 570 35,000  Level FlightAware
01:28AM 8.7480 -75.3710 138° Southeast 494 568 35,000  Level FlightAware
01:29AM 8.6850 -75.3140 138° Southeast 493 567 35,000  Level FlightAware
01:29AM 8.5730 -75.2400 147° Southeast 491 565 35,000  Level FlightAware
01:30AM 8.5120 -75.1970 145° Southeast 492 566 35,000  Level FlightAware
01:31AM 8.4200 -75.1310 145° Southeast 489 563 35,000  Level FlightAware
01:32AM 8.3380 -75.0730 145° Southeast 488 562 35,000  Level FlightAware
01:32AM 8.2800 -75.0320 145° Southeast 488 562 35,000  Level FlightAware
01:33AM 8.2040 -74.9790 145° Southeast 488 562 35,000  Level FlightAware
01:34AM 8.1480 -74.9390 145° Southeast 488 562 35,000  Level FlightAware
01:34AM 8.0720 -74.8850 145° Southeast 488 562 35,000  Level FlightAware
01:35AM 8.0160 -74.8450 145° Southeast 488 562 35,000  Level FlightAware
01:36AM 7.9400 -74.7920 145° Southeast 488 562 35,000  Level FlightAware
01:36AM 7.8820 -74.7510 145° Southeast 488 562 35,000  Level FlightAware
01:37AM 7.8050 -74.6960 145° Southeast 488 562 35,000  Level FlightAware
01:38AM 7.7480 -74.6560 145° Southeast 488 562 35,000  Level FlightAware
01:39AM 7.6760 -74.6050 145° Southeast 488 562 35,000  Level FlightAware
01:39AM 7.6190 -74.5650 145° Southeast 488 562 35,000  Level FlightAware
01:40AM 7.5580 -74.5220 145° Southeast 488 562 35,000  Level FlightAware
01:41AM 7.4810 -74.4680 145° Southeast 488 562 35,000 -60 Level FlightAware
01:43AM 7.2953 -74.3067 139° Southeast  Level Estimated
01:44AM 7.1949 -74.2195 139° Southeast  Level Estimated
01:45AM 7.0945 -74.1324 139° Southeast  Level Estimated
01:46AM 6.9941 -74.0454 139° Southeast  Level Estimated
01:47AM 6.8937 -73.9583 139° Southeast  Level Estimated
01:48AM 6.7932 -73.8714 139° Southeast  Level Estimated
01:49AM 6.6927 -73.7844 139° Southeast  Level Estimated
01:50AM 6.5922 -73.6975 139° Southeast  Level Estimated
01:51AM 6.4919 -73.6107 139° Southeast  Level Estimated
01:52AM 6.3916 -73.5240 139° Southeast  Level Estimated
01:53AM 6.2912 -73.4374 139° Southeast  Level Estimated
01:54AM 6.1909 -73.3508 139° Southeast  Level Estimated
01:55AM 6.0905 -73.2642 139° Southeast  Level Estimated
01:56AM 5.9901 -73.1776 139° Southeast  Level Estimated
01:57AM 5.8897 -73.0911 139° Southeast  Level Estimated
01:58AM 5.7893 -73.0046 139° Southeast  Level Estimated
01:59AM 5.6888 -72.9181 139° Southeast  Level Estimated
02:00AM 5.5884 -72.8317 139° Southeast  Level Estimated
02:01AM 5.4879 -72.7453 139° Southeast  Level Estimated
02:02AM 5.3875 -72.6589 139° Southeast  Level Estimated
02:03AM 5.2870 -72.5725 139° Southeast  Level Estimated
02:04AM 5.1865 -72.4862 139° Southeast  Level Estimated
02:05AM 5.0860 -72.3999 139° Southeast  Level Estimated
02:06AM 4.9854 -72.3136 139° Southeast  Level Estimated
02:07AM 4.8849 -72.2274 139° Southeast  Level Estimated
02:08AM 4.7844 -72.1412 139° Southeast  Level Estimated
02:09AM 4.6838 -72.0550 139° Southeast  Level Estimated
02:10AM 4.5833 -71.9688 139° Southeast  Level Estimated
02:11AM 4.4827 -71.8827 140° Southeast  Level Estimated
02:12AM 4.3821 -71.7966 140° Southeast  Level Estimated
02:13AM 4.2815 -71.7105 140° Southeast  Level Estimated
02:14AM 4.1811 -71.6245 140° Southeast  Level Estimated
02:15AM 4.0807 -71.5386 140° Southeast  Level Estimated
02:16AM 3.9802 -71.4528 140° Southeast  Level Estimated
02:17AM 3.8798 -71.3669 140° Southeast  Level Estimated
02:18AM 3.7793 -71.2811 140° Southeast  Level Estimated
02:19AM 3.6788 -71.1952 140° Southeast  Level Estimated
02:20AM 3.5784 -71.1094 140° Southeast  Level Estimated
02:21AM 3.4779 -71.0237 140° Southeast  Level Estimated
02:22AM 3.3774 -70.9379 140° Southeast  Level Estimated
02:23AM 3.2769 -70.8522 140° Southeast  Level Estimated
02:24AM 3.1764 -70.7664 140° Southeast  Level Estimated
02:25AM 3.0759 -70.6807 140° Southeast  Level Estimated
02:26AM 2.9753 -70.5950 140° Southeast  Level Estimated
02:27AM 2.8748 -70.5094 140° Southeast  Level Estimated
02:28AM 2.7743 -70.4237 140° Southeast  Level Estimated
02:29AM 2.6737 -70.3381 140° Southeast  Level Estimated
02:30AM 2.5732 -70.2524 140° Southeast  Level Estimated
02:31AM 2.4726 -70.1668 140° Southeast  Level Estimated
02:32AM 2.3721 -70.0812 140° Southeast  Level Estimated
02:33AM 2.2715 -69.9956 140° Southeast  Level Estimated
02:34AM 2.1709 -69.9100 140° Southeast  Level Estimated
02:35AM 2.0704 -69.8244 140° Southeast  Level Estimated
02:36AM 1.9698 -69.7389 140° Southeast  Level Estimated
02:37AM 1.8692 -69.6533 140° Southeast  Level Estimated
02:38AM 1.7686 -69.5678 140° Southeast  Level Estimated
02:39AM 1.6680 -69.4823 140° Southeast  Level Estimated
02:40AM 1.5674 -69.3968 140° Southeast  Level Estimated
02:41AM 1.4670 -69.3114 140° Southeast  Level Estimated
02:42AM 1.3666 -69.2260 140° Southeast  Level Estimated
02:43AM 1.2661 -69.1407 140° Southeast  Level Estimated
02:44AM 1.1657 -69.0554 140° Southeast  Level Estimated
02:45AM 1.0653 -68.9700 140° Southeast  Level Estimated
02:46AM 0.9649 -68.8847 140° Southeast  Level Estimated
02:47AM 0.8644 -68.7994 140° Southeast  Level Estimated
02:48AM 0.7640 -68.7141 140° Southeast  Level Estimated
02:49AM 0.6635 -68.6287 140° Southeast  Level Estimated
02:50AM 0.5631 -68.5434 140° Southeast  Level Estimated
02:51AM 0.4627 -68.4581 140° Southeast  Level Estimated
02:52AM 0.3622 -68.3728 140° Southeast  Level Estimated
02:53AM 0.2618 -68.2875 140° Southeast  Level Estimated
02:54AM 0.1613 -68.2022 140° Southeast  Level Estimated
02:55AM 0.0609 -68.1169 140° Southeast  Level Estimated
02:56AM -0.0396 -68.0316 140° Southeast  Level Estimated
02:57AM -0.1400 -67.9463 140° Southeast  Level Estimated
02:58AM -0.2405 -67.8610 140° Southeast  Level Estimated
02:59AM -0.3409 -67.7757 140° Southeast  Level Estimated
03:00AM -0.4414 -67.6904 140° Southeast  Level Estimated
03:01AM -0.5418 -67.6051 140° Southeast  Level Estimated
03:02AM -0.6423 -67.5198 140° Southeast  Level Estimated
03:03AM -0.7427 -67.4345 140° Southeast  Level Estimated
03:04AM -0.8431 -67.3492 140° Southeast  Level Estimated
03:05AM -0.9436 -67.2638 140° Southeast  Level Estimated
03:06AM -1.0440 -67.1785 140° Southeast  Level Estimated
03:07AM -1.1444 -67.0932 140° Southeast  Level Estimated
03:08AM -1.2449 -67.0078 140° Southeast  Level Estimated
03:09AM -1.3453 -66.9225 140° Southeast  Level Estimated
03:10AM -1.4457 -66.8371 140° Southeast  Level Estimated
03:11AM -1.5462 -66.7518 140° Southeast  Level Estimated
03:12AM -1.6466 -66.6664 140° Southeast  Level Estimated
03:13AM -1.7470 -66.5810 140° Southeast  Level Estimated
03:14AM -1.8474 -66.4956 140° Southeast  Level Estimated
03:15AM -1.9478 -66.4102 140° Southeast  Level Estimated
03:16AM -2.0479 -66.3251 140° Southeast  Level Estimated
03:17AM -2.1479 -66.2400 140° Southeast  Level Estimated
03:18AM -2.2479 -66.1549 140° Southeast  Level Estimated
03:19AM -2.3480 -66.0698 140° Southeast  Level Estimated
03:20AM -2.4482 -65.9845 140° Southeast  Level Estimated
03:21AM -2.5484 -65.8991 140° Southeast  Level Estimated
03:22AM -2.6486 -65.8138 140° Southeast  Level Estimated
03:23AM -2.7488 -65.7285 140° Southeast  Level Estimated
03:24AM -2.8489 -65.6431 140° Southeast  Level Estimated
03:25AM -2.9491 -65.5578 140° Southeast  Level Estimated
03:26AM -3.0493 -65.4724 140° Southeast  Level Estimated
03:27AM -3.1495 -65.3870 140° Southeast  Level Estimated
03:28AM -3.2496 -65.3016 140° Southeast  Level Estimated
03:29AM -3.3498 -65.2161 140° Southeast  Level Estimated
03:30AM -3.4499 -65.1307 140° Southeast  Level Estimated
03:31AM -3.5500 -65.0452 140° Southeast  Level Estimated
03:32AM -3.6500 -64.9599 140° Southeast  Level Estimated
03:33AM -3.7499 -64.8745 140° Southeast  Level Estimated
03:34AM -3.8498 -64.7891 140° Southeast  Level Estimated
03:35AM -3.9498 -64.7037 140° Southeast  Level Estimated
03:36AM -4.0497 -64.6183 140° Southeast  Level Estimated
03:37AM -4.1496 -64.5329 140° Southeast  Level Estimated
03:38AM -4.2495 -64.4474 140° Southeast  Level Estimated
03:39AM -4.3494 -64.3619 140° Southeast  Level Estimated
03:40AM -4.4493 -64.2764 140° Southeast  Level Estimated
03:41AM -4.5491 -64.1909 140° Southeast  Level Estimated
03:42AM -4.6490 -64.1053 140° Southeast  Level Estimated
03:43AM -4.7489 -64.0198 140° Southeast  Level Estimated
03:44AM -4.8487 -63.9342 139° Southeast  Level Estimated
03:45AM -4.9485 -63.8485 139° Southeast  Level Estimated
03:46AM -5.0483 -63.7629 139° Southeast  Level Estimated
03:47AM -5.1482 -63.6772 139° Southeast  Level Estimated
03:48AM -5.2480 -63.5915 139° Southeast  Level Estimated
03:49AM -5.3479 -63.5056 139° Southeast  Level Estimated
03:50AM -5.4479 -63.4197 139° Southeast  Level Estimated
03:51AM -5.5478 -63.3338 139° Southeast  Level Estimated
03:52AM -5.6477 -63.2478 139° Southeast  Level Estimated
03:53AM -5.7476 -63.1618 139° Southeast  Level Estimated
03:54AM -5.8475 -63.0758 139° Southeast  Level Estimated
03:55AM -5.9474 -62.9897 139° Southeast  Level Estimated
03:56AM -6.0473 -62.9036 139° Southeast  Level Estimated
03:57AM -6.1471 -62.8175 139° Southeast  Level Estimated
03:58AM -6.2470 -62.7314 139° Southeast  Level Estimated
03:59AM -6.3468 -62.6452 139° Southeast  Level Estimated
04:00AM -6.4466 -62.5589 139° Southeast  Level Estimated
04:01AM -6.5464 -62.4727 139° Southeast  Level Estimated
04:02AM -6.6462 -62.3864 139° Southeast  Level Estimated
04:03AM -6.7460 -62.3001 139° Southeast  Level Estimated
04:04AM -6.8457 -62.2137 139° Southeast  Level Estimated
04:05AM -6.9454 -62.1273 139° Southeast  Level Estimated
04:06AM -7.0452 -62.0409 139° Southeast  Level Estimated
04:07AM -7.1449 -61.9544 139° Southeast  Level Estimated
04:08AM -7.2446 -61.8679 139° Southeast  Level Estimated
04:09AM -7.3443 -61.7814 139° Southeast  Level Estimated
04:10AM -7.4439 -61.6948 139° Southeast  Level Estimated
04:11AM -7.5436 -61.6082 139° Southeast  Level Estimated
04:12AM -7.6432 -61.5215 139° Southeast  Level Estimated
04:13AM -7.7428 -61.4348 139° Southeast  Level Estimated
04:14AM -7.8424 -61.3480 139° Southeast  Level Estimated
04:15AM -7.9419 -61.2613 139° Southeast  Level Estimated
04:16AM -8.0415 -61.1744 139° Southeast  Level Estimated
04:17AM -8.1410 -61.0876 139° Southeast  Level Estimated
04:18AM -8.2406 -61.0006 139° Southeast  Level Estimated
04:19AM -8.3399 -60.9138 139° Southeast  Level Estimated
04:20AM -8.4392 -60.8270 139° Southeast  Level Estimated
04:21AM -8.5385 -60.7401 139° Southeast  Level Estimated
04:22AM -8.6377 -60.6531 139° Southeast  Level Estimated
04:23AM -8.7370 -60.5662 139° Southeast  Level Estimated
04:24AM -8.8362 -60.4791 139° Southeast  Level Estimated
04:25AM -8.9354 -60.3921 139° Southeast  Level Estimated
04:26AM -9.0346 -60.3049 139° Southeast  Level Estimated
04:27AM -9.1338 -60.2178 139° Southeast  Level Estimated
04:28AM -9.2329 -60.1305 139° Southeast  Level Estimated
04:29AM -9.3321 -60.0433 139° Southeast  Level Estimated
04:30AM -9.4313 -59.9558 139° Southeast  Level Estimated
04:31AM -9.5306 -59.8683 139° Southeast  Level Estimated
04:32AM -9.6298 -59.7807 139° Southeast  Level Estimated
04:33AM -9.7290 -59.6930 139° Southeast  Level Estimated
04:34AM -9.8282 -59.6054 139° Southeast  Level Estimated
04:35AM -9.9274 -59.5176 139° Southeast  Level Estimated
04:36AM -10.0265 -59.4298 139° Southeast  Level Estimated
04:37AM -10.1257 -59.3420 139° Southeast  Level Estimated
04:38AM -10.2247 -59.2541 139° Southeast  Level Estimated
04:39AM -10.3238 -59.1662 139° Southeast  Level Estimated
04:40AM -10.4229 -59.0782 139° Southeast  Level Estimated
04:41AM -10.5219 -58.9901 139° Southeast  Level Estimated
04:42AM -10.6209 -58.9020 139° Southeast  Level Estimated
04:43AM -10.7199 -58.8138 139° Southeast  Level Estimated
04:44AM -10.8188 -58.7256 139° Southeast  Level Estimated
04:45AM -10.9178 -58.6373 139° Southeast  Level Estimated
04:46AM -11.0167 -58.5489 139° Southeast  Level Estimated
04:47AM -11.1155 -58.4605 139° Southeast  Level Estimated
04:48AM -11.2144 -58.3721 139° Southeast  Level Estimated
04:49AM -11.3132 -58.2835 139° Southeast  Level Estimated
04:50AM -11.4120 -58.1949 139° Southeast  Level Estimated
04:51AM -11.5108 -58.1063 139° Southeast  Level Estimated
04:52AM -11.6095 -58.0176 139° Southeast  Level Estimated
04:53AM -11.7083 -57.9288 139° Southeast  Level Estimated
04:54AM -11.8069 -57.8400 139° Southeast  Level Estimated
04:55AM -11.9056 -57.7511 139° Southeast  Level Estimated
04:56AM -12.0042 -57.6621 139° Southeast  Level Estimated
04:57AM -12.1028 -57.5731 139° Southeast  Level Estimated
04:58AM -12.2014 -57.4840 139° Southeast  Level Estimated
04:59AM -12.3000 -57.3948 139° Southeast  Level Estimated
05:00AM -12.3985 -57.3056 139° Southeast  Level Estimated
05:01AM -12.4970 -57.2163 138° Southeast  Level Estimated
05:02AM -12.5955 -57.1269 138° Southeast  Level Estimated
05:03AM -12.6939 -57.0374 138° Southeast  Level Estimated
05:04AM -12.7923 -56.9479 138° Southeast  Level Estimated
05:05AM -12.8906 -56.8584 138° Southeast  Level Estimated
05:06AM -12.9890 -56.7687 138° Southeast  Level Estimated
05:07AM -13.0873 -56.6790 138° Southeast  Level Estimated
05:08AM -13.1856 -56.5892 138° Southeast  Level Estimated
05:09AM -13.2838 -56.4993 138° Southeast  Level Estimated
05:10AM -13.3820 -56.4094 138° Southeast  Level Estimated
05:11AM -13.4802 -56.3194 138° Southeast  Level Estimated
05:12AM -13.5784 -56.2293 138° Southeast  Level Estimated
05:13AM -13.6765 -56.1392 138° Southeast  Level Estimated
05:14AM -13.7746 -56.0489 138° Southeast  Level Estimated
05:15AM -13.8727 -55.9586 138° Southeast  Level Estimated
05:16AM -13.9707 -55.8682 138° Southeast  Level Estimated
05:17AM -14.0690 -55.7775 138° Southeast  Level Estimated
05:18AM -14.1673 -55.6866 138° Southeast  Level Estimated
05:19AM -14.2656 -55.5957 138° Southeast  Level Estimated
05:20AM -14.3638 -55.5046 138° Southeast  Level Estimated
05:21AM -14.4620 -55.4135 138° Southeast  Level Estimated
05:22AM -14.5602 -55.3224 138° Southeast  Level Estimated
05:23AM -14.6583 -55.2311 138° Southeast  Level Estimated
05:24AM -14.7564 -55.1398 138° Southeast  Level Estimated
05:25AM -14.8545 -55.0483 138° Southeast  Level Estimated
05:26AM -14.9525 -54.9568 138° Southeast  Level Estimated
05:27AM -15.0505 -54.8652 138° Southeast  Level Estimated
05:28AM -15.1484 -54.7736 138° Southeast  Level Estimated
05:29AM -15.2463 -54.6818 138° Southeast  Level Estimated
05:30AM -15.3442 -54.5900 138° Southeast  Level Estimated
05:31AM -15.4420 -54.4981 138° Southeast  Level Estimated
05:32AM -15.5398 -54.4060 138° Southeast  Level Estimated
05:33AM -15.6376 -54.3139 138° Southeast  Level Estimated
05:34AM -15.7353 -54.2217 138° Southeast  Level Estimated
05:35AM -15.8330 -54.1295 138° Southeast  Level Estimated
05:36AM -15.9306 -54.0371 138° Southeast  Level Estimated
05:37AM -16.0282 -53.9446 138° Southeast  Level Estimated
05:38AM -16.1258 -53.8521 138° Southeast  Level Estimated
05:39AM -16.2233 -53.7594 138° Southeast  Level Estimated
05:40AM -16.3208 -53.6667 138° Southeast  Level Estimated
05:41AM -16.4182 -53.5739 138° Southeast  Level Estimated
05:42AM -16.5156 -53.4810 138° Southeast  Level Estimated
05:43AM -16.6130 -53.3880 138° Southeast  Level Estimated
05:44AM -16.7103 -53.2948 138° Southeast  Level Estimated
05:45AM -16.8079 -53.2013 137° Southeast  Level Estimated
05:46AM -16.9055 -53.1077 137° Southeast  Level Estimated
05:47AM -17.0030 -53.0140 137° Southeast  Level Estimated
05:48AM -17.1005 -52.9201 137° Southeast  Level Estimated
05:49AM -17.1980 -52.8262 137° Southeast  Level Estimated
05:50AM -17.2954 -52.7322 137° Southeast  Level Estimated
05:51AM -17.3928 -52.6381 137° Southeast  Level Estimated
05:52AM -17.4901 -52.5439 137° Southeast  Level Estimated
05:53AM -17.5874 -52.4495 137° Southeast  Level Estimated
05:54AM -17.6846 -52.3551 137° Southeast  Level Estimated
05:55AM -17.7818 -52.2606 137° Southeast  Level Estimated
05:56AM -17.8789 -52.1660 137° Southeast  Level Estimated
05:57AM -17.9760 -52.0712 137° Southeast  Level Estimated
05:58AM -18.0731 -51.9764 137° Southeast  Level Estimated
05:59AM -18.1701 -51.8815 137° Southeast  Level Estimated
06:00AM -18.2670 -51.7864 137° Southeast  Level Estimated
06:01AM -18.3640 -51.6913 137° Southeast  Level Estimated
06:02AM -18.4608 -51.5960 137° Southeast  Level Estimated
06:03AM -18.5576 -51.5006 137° Southeast  Level Estimated
06:04AM -18.6544 -51.4052 137° Southeast  Level Estimated
06:05AM -18.7511 -51.3096 137° Southeast  Level Estimated
06:06AM -18.8478 -51.2139 137° Southeast  Level Estimated
06:06AM -19.0640 -50.6020 137° Southeast 515 593 33,000  Level FlightAware
06:06AM -19.1310 -50.5300 135° Southeast 515 593 33,000  Level FlightAware
06:07AM -19.2040 -50.4510 134° Southeast 516 594 33,000  Level FlightAware
06:08AM -19.2730 -50.3760 134° Southeast 516 594 33,000  Level FlightAware
06:08AM -19.3390 -50.3030 134° Southeast 518 596 33,000  Level FlightAware
06:09AM -19.4120 -50.2240 134° Southeast 518 596 33,000  Level FlightAware
06:10AM -19.4820 -50.1470 134° Southeast 517 595 33,000  Level FlightAware
06:10AM -19.5450 -50.0780 134° Southeast 516 594 33,000  Level FlightAware
06:11AM -19.6220 -49.9950 135° Southeast 515 593 33,000  Level FlightAware
06:12AM -19.6890 -49.9200 134° Southeast 514 592 33,000  Level FlightAware
06:13AM -19.7640 -49.8380 134° Southeast 514 592 33,000  Level FlightAware
06:13AM -19.8310 -49.7650 134° Southeast 514 592 33,000  Level FlightAware
06:14AM -19.9020 -49.6870 134° Southeast 516 594 33,000  Level FlightAware
06:15AM -19.9700 -49.6110 134° Southeast 515 593 33,000  Level FlightAware
06:15AM -20.0400 -49.5340 134° Southeast 516 594 33,000  Level FlightAware
06:16AM -20.1100 -49.4580 134° Southeast 516 594 33,000  Level FlightAware
06:17AM -20.1790 -49.3810 134° Southeast 517 595 33,000  Level FlightAware
06:17AM -20.2450 -49.3080 134° Southeast 517 595 33,000  Level FlightAware
06:18AM -20.3210 -49.2230 134° Southeast 516 594 33,000  Level FlightAware
06:19AM -20.3910 -49.1450 134° Southeast 516 594 33,000  Level FlightAware
06:20AM -20.4570 -49.0730 134° Southeast 516 594 33,000  Level FlightAware
06:20AM -20.5300 -48.9910 134° Southeast 516 594 33,000  Level FlightAware
06:21AM -20.5960 -48.9170 134° Southeast 516 594 33,000  Level FlightAware
06:22AM -20.6620 -48.8440 134° Southeast 514 592 33,000  Level FlightAware
06:22AM -20.7240 -48.7740 133° Southeast 515 593 33,000  Level FlightAware
06:23AM -20.7940 -48.6960 134° Southeast 514 592 33,000  Level FlightAware
06:24AM -20.8610 -48.6210 134° Southeast 512 589 33,000  Level FlightAware
06:24AM -20.9280 -48.5450 133° Southeast 513 590 33,000  Level FlightAware
06:25AM -21.0360 -48.4240 134° Southeast 512 589 33,000  Level FlightAware
06:26AM -21.1050 -48.3460 133° Southeast 512 589 33,000  Level FlightAware
06:27AM -21.1880 -48.2520 133° Southeast 512 589 33,000  Level FlightAware
06:28AM -21.2670 -48.1640 134° Southeast 510 587 33,000  Level FlightAware
06:28AM -21.3350 -48.0910 135° Southeast 506 582 33,000  Level FlightAware
06:29AM -21.4140 -48.0220 141° Southeast 504 580 33,000  Level FlightAware
06:30AM -21.5110 -47.9460 144° Southeast 500 575 33,000  Level FlightAware
06:31AM -21.5960 -47.8800 144° Southeast 500 575 33,000  Level FlightAware
06:31AM -21.6700 -47.8220 144° Southeast 501 577 33,000  Level FlightAware
06:32AM -21.7460 -47.7630 144° Southeast 501 577 33,000  Level FlightAware
06:33AM -21.8290 -47.6970 144° Southeast 502 578 33,000  Level FlightAware
06:34AM -21.9050 -47.6380 144° Southeast 502 578 33,000  Level FlightAware
06:34AM -21.9890 -47.5710 144° Southeast 501 577 33,000  Level FlightAware
06:35AM -22.0270 -47.5410 144° Southeast 500 575 33,000 -420 Level FlightAware
06:36AM -22.1750 -47.4230 144° Southeast 495 570 32,400 -1,560 Descending FlightAware
06:37AM -22.2430 -47.3680 143° Southeast 493 567 30,900 -2,220 Descending FlightAware
06:37AM -22.3280 -47.3000 144° Southeast 480 552 29,300 -2,520 Descending FlightAware
06:38AM -22.3980 -47.2420 143° Southeast 467 537 27,400 -2,760 Descending FlightAware
06:39AM -22.4710 -47.1840 144° Southeast 453 521 25,500 -2,700 Descending FlightAware
06:39AM -22.5370 -47.1300 143° Southeast 441 507 23,700 -2,700 Descending FlightAware
06:40AM -22.6050 -47.0870 150° Southeast 420 483 22,000 -2,640 Descending FlightAware
06:41AM -22.6890 -47.0500 158° South 408 470 19,900 -2,700 Descending FlightAware
06:42AM -22.7590 -47.0210 159° South 398 458 18,100 -2,580 Descending FlightAware
06:42AM -22.8330 -46.9900 159° South 387 445 16,300 -2,400 Descending FlightAware
06:43AM -22.9000 -46.9620 159° South 373 429 14,800 -1,800 Descending FlightAware
06:44AM -22.9660 -46.9340 159° South 347 399 13,900 -1,260 Descending FlightAware
06:44AM -23.0260 -46.9090 159° South 312 359 13,100 -1,620 Descending FlightAware
06:46AM -23.1310 -46.8650 159° South 290 334 10,600 -1,860 Descending FlightAware
06:46AM -23.1620 -46.8480 153° Southeast 279 321 9,800 -1,440 Descending FlightAware
06:46AM -23.1800 -46.8380 153° Southeast 271 312 9,600 -1,140 Descending FlightAware
06:47AM -23.2050 -46.8230 151° Southeast 281 323 9,100 -1,200 Descending FlightAware
06:47AM -23.2400 -46.8040 153° Southeast 285 328 8,600 -1,140 Descending FlightAware
06:48AM -23.2760 -46.7850 154° Southeast 284 327 8,000 -1,140 Descending FlightAware
06:48AM -23.3090 -46.7680 155° Southeast 279 321 7,500 -1,200 Descending FlightAware
06:49AM -23.3410 -46.7500 153° Southeast 274 315 6,900 -1,080 Descending FlightAware
06:49AM -23.3720 -46.7330 153° Southeast 265 305 6,500 -780 Descending FlightAware
06:50AM -23.4040 -46.7160 154° Southeast 250 288 6,200 -540 Descending FlightAware
06:50AM -23.4330 -46.7000 153° Southeast 233 268 6,000 -540 Descending FlightAware
06:51AM -23.4530 -46.6800 137° Southeast 211 243 5,700 -900 Descending FlightAware
06:51AM -23.4650 -46.6530 116° Southeast 202 232 5,200 -1,200 Descending FlightAware
06:52AM -23.4740 -46.6270 111° Southeast 198 228 4,600 -1,020 Descending FlightAware
06:52AM -23.4690 -46.6000 79° East 191 220 4,300 -900 Descending FlightAware
06:52AM -23.4630 -46.5770 74° East 189 217 3,800 -1,020 Descending FlightAware
06:53AM -23.4570 -46.5540 74° East 173 199 3,400 -900 Descending FlightAware
06:53AM -23.4510 -46.5320 73° East 148 170 3,000 -720 Descending FlightAware
06:54AM -23.4480 -46.5210 73° East 138 159 2,900 -720 Descending FlightAware
06:54AM -23.4430 -46.5040 72° East 134 154 2,500 -900 Descending FlightAware
06:55AM -23.4380 -46.4830 75° East 138 159 2,100 -840 Descending FlightAware
06:55AM -23.4340 -46.4690 73° East 55 63 -3,600 Descending FlightAware
06:57AM -23.4280 -46.4620 47° Northeast 10 12  Level FlightAware